Time,TemperatureF,DewpointF,PressureIn,WindDirection,WindDirectionDegrees,WindSpeedMPH,WindSpeedGustMPH,Humidity,HourlyPrecipIn,Conditions,Clouds,dailyrainin,SoftwareType,DateUTC
2013-04-13 00:01:00,39.5,39.5,29.76,East,90,8.0,14.2,100,0.00,,OVC008,0.00,VWS V14.01,2013-04-13 04:01:00,
2013-04-13 00:05:00,39.5,39.5,29.76,NNE,31,8.8,11.1,100,0.00,,OVC008,0.00,VWS V14.01,2013-04-13 04:05:00,
2013-04-13 00:07:00,39.4,39.4,29.76,ENE,75,9.3,11.0,100,0.00,,OVC008,0.00,VWS V14.01,2013-04-13 04:07:00,
2013-04-13 00:11:00,39.4,39.4,29.76,NNE,30,10.2,10.2,100,0.00,,OVC008,0.00,VWS V14.01,2013-04-13 04:11:00,
2013-04-13 00:17:00,39.4,39.4,29.76,East,91,8.2,11.9,100,0.00,,OVC008,0.00,VWS V14.01,2013-04-13 04:17:00,
2013-04-13 00:23:00,39.4,39.4,29.76,SE,127,3.7,11.7,100,0.00,,OVC010,0.00,VWS V14.01,2013-04-13 04:23:00,
2013-04-13 00:29:00,39.4,39.4,29.76,NE,56,9.1,11.3,100,0.00,,OVC010,0.00,VWS V14.01,2013-04-13 04:29:00,
2013-04-13 00:35:00,39.5,39.5,29.77,East,97,6.7,10.6,100,0.00,,OVC010,0.00,VWS V14.01,2013-04-13 04:35:00,
2013-04-13 00:41:00,39.5,39.5,29.77,East,89,8.2,9.9,100,0.00,,OVC010,0.00,VWS V14.01,2013-04-13 04:41:00,
2013-04-13 00:47:00,39.3,39.3,29.77,ENE,63,7.3,11.0,100,0.00,,OVC010,0.00,VWS V14.01,2013-04-13 04:47:00,
2013-04-13 00:53:00,39.1,39.1,29.77,East,98,6.7,10.7,100,0.00,,OVC010,0.00,VWS V14.01,2013-04-13 04:53:00,
2013-04-13 00:59:00,39.1,39.1,29.77,ENE,59,10.0,15.4,100,0.00,,OVC010,0.00,VWS V14.01,2013-04-13 04:59:00,
2013-04-13 01:05:00,38.9,38.9,29.77,NE,52,9.3,9.4,100,0.00,,OVC010,0.00,VWS V14.01,2013-04-13 05:05:00,
2013-04-13 01:11:00,38.9,38.9,29.76,East,83,7.8,11.0,100,0.00,,OVC010,0.00,VWS V14.01,2013-04-13 05:11:00,
2013-04-13 01:17:00,38.8,38.8,29.76,NNE,25,8.1,11.0,100,0.00,,,0.00,VWS V14.01,2013-04-13 05:17:00,
2013-04-13 01:23:00,38.6,38.6,29.76,NE,49,10.1,11.2,100,0.00,,,0.00,VWS V14.01,2013-04-13 05:23:00,
2013-04-13 01:29:00,38.5,38.5,29.74,East,87,8.3,12.3,100,0.00,,,0.00,VWS V14.01,2013-04-13 05:29:00,
2013-04-13 01:35:00,38.4,38.4,29.75,North,352,10.9,11.9,100,0.00,,,0.00,VWS V14.01,2013-04-13 05:35:00,
2013-04-13 01:43:00,38.6,38.6,29.75,NNE,28,5.7,9.0,100,0.00,,,0.00,VWS V14.01,2013-04-13 05:43:00,
2013-04-13 01:49:00,38.7,38.7,29.75,ENE,75,7.8,12.3,100,0.00,,,0.00,VWS V14.01,2013-04-13 05:49:00,
2013-04-13 01:55:00,38.6,38.6,29.75,East,83,6.7,9.8,100,0.00,,OVC010,0.00,VWS V14.01,2013-04-13 05:55:00,
2013-04-13 02:01:00,38.5,38.5,29.75,NE,46,6.0,11.3,100,0.00,,OVC008,0.00,VWS V14.01,2013-04-13 06:01:00,
2013-04-13 02:07:00,38.5,38.5,29.75,ENE,75,6.0,11.6,100,0.00,,OVC008,0.00,VWS V14.01,2013-04-13 06:07:00,
2013-04-13 02:13:00,38.6,38.6,29.77,NNE,27,9.1,10.5,100,0.00,,OVC008,0.00,VWS V14.01,2013-04-13 06:13:00,
2013-04-13 02:19:00,38.5,38.5,29.76,ENE,76,10.6,11.8,100,0.00,,OVC014,0.00,VWS V14.01,2013-04-13 06:19:00,
2013-04-13 02:25:00,38.5,38.5,29.77,ENE,62,7.9,8.7,100,0.00,,OVC014,0.00,VWS V14.01,2013-04-13 06:25:00,
2013-04-13 02:33:00,38.4,38.4,29.76,NE,35,10.0,19.6,100,0.00,,OVC014,0.00,VWS V14.01,2013-04-13 06:33:00,
2013-04-13 02:39:00,38.4,38.4,29.76,NE,35,8.2,10.1,100,0.00,,OVC014,0.00,VWS V14.01,2013-04-13 06:39:00,
2013-04-13 02:45:00,38.3,38.3,29.76,ENE,63,6.5,10.5,100,0.00,,OVC014,0.00,VWS V14.01,2013-04-13 06:45:00,
2013-04-13 02:51:00,38.2,38.2,29.76,NE,56,8.7,10.8,100,0.00,,OVC014,0.00,VWS V14.01,2013-04-13 06:51:00,
2013-04-13 02:57:00,38.3,38.3,29.76,North,3,13.1,18.8,100,0.00,,OVC014,0.00,VWS V14.01,2013-04-13 06:57:00,
2013-04-13 03:03:00,38.1,38.1,29.76,NE,52,7.5,13.8,100,0.00,,OVC012,0.00,VWS V14.01,2013-04-13 07:03:00,
2013-04-13 03:09:00,38.1,38.1,29.77,ENE,69,8.7,13.6,100,0.00,,OVC012,0.00,VWS V14.01,2013-04-13 07:09:00,
2013-04-13 03:15:00,38.1,38.1,29.78,NE,48,7.2,12.3,100,0.00,,OVC012,0.00,VWS V14.01,2013-04-13 07:15:00,
2013-04-13 03:23:00,38.0,38.0,29.78,North,0,13.2,18.0,100,0.00,,OVC012,0.00,VWS V14.01,2013-04-13 07:23:00,
2013-04-13 03:29:00,37.8,37.8,29.78,North,7,8.3,15.9,100,0.00,,OVC012,0.00,VWS V14.01,2013-04-13 07:29:00,
2013-04-13 03:35:00,37.9,37.9,29.78,NNE,32,8.8,15.0,100,0.00,,OVC012,0.00,VWS V14.01,2013-04-13 07:35:00,
2013-04-13 03:43:00,37.8,37.8,29.78,ENE,63,8.0,19.2,100,0.00,,OVC012,0.00,VWS V14.01,2013-04-13 07:43:00,
2013-04-13 03:49:00,37.9,37.9,29.77,ESE,104,9.6,12.7,100,0.00,,OVC012,0.00,VWS V14.01,2013-04-13 07:49:00,
2013-04-13 03:55:00,37.8,37.8,29.76,SE,125,7.6,11.0,100,0.00,,-RA,0.00,VWS V14.01,2013-04-13 07:55:00,
2013-04-13 04:03:00,37.7,37.7,29.74,East,79,10.7,14.3,100,0.00,,RA,0.00,VWS V14.01,2013-04-13 08:03:00,
2013-04-13 04:09:00,37.8,37.8,29.75,ESE,104,8.2,10.8,100,0.00,,RA,0.00,VWS V14.01,2013-04-13 08:09:00,
2013-04-13 04:15:00,37.7,37.7,29.74,ENE,65,12.3,13.2,100,0.00,,RA,0.00,VWS V14.01,2013-04-13 08:15:00,
2013-04-13 04:22:00,37.8,37.8,29.74,NE,52,9.1,11.8,100,0.00,,RA,0.00,VWS V14.01,2013-04-13 08:22:00,
2013-04-13 04:27:00,37.8,37.8,29.76,NE,52,8.4,10.3,100,0.00,,RA,0.00,VWS V14.01,2013-04-13 08:27:00,
2013-04-13 04:34:00,37.9,37.9,29.76,NE,45,8.2,13.5,100,0.00,,RA,0.00,VWS V14.01,2013-04-13 08:34:00,
2013-04-13 04:39:00,37.9,37.9,29.77,NNE,14,10.3,12.3,100,0.00,,RA,0.00,VWS V14.01,2013-04-13 08:39:00,
2013-04-13 04:45:00,37.9,37.9,29.76,East,89,10.6,13.4,100,0.00,,RA,0.00,VWS V14.01,2013-04-13 08:45:00,
2013-04-13 04:51:00,37.9,37.9,29.76,West,271,8.2,11.1,100,0.00,,RA,0.00,VWS V14.01,2013-04-13 08:51:00,
2013-04-13 04:57:00,37.9,37.9,29.76,NNE,27,8.6,15.4,100,0.00,,RA,0.00,VWS V14.01,2013-04-13 08:57:00,
2013-04-13 05:03:00,38.0,38.0,29.75,ENE,69,8.0,12.1,100,0.00,,OVC016,0.00,VWS V14.01,2013-04-13 09:03:00,
2013-04-13 05:09:00,37.9,37.9,29.75,ENE,68,6.2,9.7,100,0.00,,OVC016,0.00,VWS V14.01,2013-04-13 09:09:00,
2013-04-13 05:15:00,37.8,37.8,29.75,NNE,24,6.6,9.6,100,0.00,,OVC016,0.00,VWS V14.01,2013-04-13 09:15:00,
2013-04-13 05:23:00,37.9,37.9,29.76,East,82,8.5,12.3,100,0.00,,OVC016,0.00,VWS V14.01,2013-04-13 09:23:00,
2013-04-13 05:29:00,37.8,37.8,29.76,East,79,8.5,9.8,100,0.00,,OVC016,0.00,VWS V14.01,2013-04-13 09:29:00,
2013-04-13 05:35:00,37.7,37.7,29.76,NNE,17,6.6,11.6,100,0.00,,OVC016,0.00,VWS V14.01,2013-04-13 09:35:00,
2013-04-13 05:41:00,37.9,37.9,29.77,NE,49,7.5,12.5,100,0.00,,OVC016,0.00,VWS V14.01,2013-04-13 09:41:00,
2013-04-13 05:47:00,37.8,37.8,29.77,NNE,27,9.0,13.2,100,0.00,,OVC016,0.00,VWS V14.01,2013-04-13 09:47:00,
2013-04-13 05:53:00,37.8,37.8,29.77,ENE,68,7.5,10.5,100,0.00,,OVC016,0.00,VWS V14.01,2013-04-13 09:53:00,
2013-04-13 05:59:00,37.9,37.9,29.77,ENE,58,9.1,9.5,100,0.00,,OVC009,0.00,VWS V14.01,2013-04-13 09:59:00,
2013-04-13 06:05:00,38.0,38.0,29.78,NE,51,8.3,9.2,100,0.00,,OVC009,0.00,VWS V14.01,2013-04-13 10:05:00,
2013-04-13 06:13:00,37.9,37.9,29.77,NE,41,10.3,11.0,100,0.00,,OVC009,0.00,VWS V14.01,2013-04-13 10:13:00,
2013-04-13 06:19:00,37.9,37.9,29.78,North,357,10.1,13.4,100,0.00,,OVC009,0.00,VWS V14.01,2013-04-13 10:19:00,
2013-04-13 06:25:00,38.0,38.0,29.79,East,83,7.3,9.3,100,0.00,,OVC009,0.00,VWS V14.01,2013-04-13 10:25:00,
2013-04-13 06:31:00,38.0,38.0,29.80,ENE,65,6.1,11.5,100,0.00,,OVC009,0.00,VWS V14.01,2013-04-13 10:31:00,
2013-04-13 06:37:00,38.0,38.0,29.80,NE,45,10.3,17.4,100,0.00,,OVC009,0.00,VWS V14.01,2013-04-13 10:37:00,
2013-04-13 06:45:00,38.0,38.0,29.81,NE,42,7.2,11.9,100,0.00,,OVC009,0.00,VWS V14.01,2013-04-13 10:45:00,
2013-04-13 06:51:00,38.0,38.0,29.81,NE,46,7.3,10.6,100,0.00,,OVC009,0.00,VWS V14.01,2013-04-13 10:51:00,
2013-04-13 06:57:00,38.0,38.0,29.81,NNE,17,6.4,11.8,100,0.00,,OVC009,0.00,VWS V14.01,2013-04-13 10:57:00,
2013-04-13 07:03:00,38.1,38.1,29.81,NE,56,5.7,10.2,100,0.00,,,0.00,VWS V14.01,2013-04-13 11:03:00,
2013-04-13 07:09:00,38.1,38.1,29.81,NE,45,6.5,13.7,100,0.00,,,0.00,VWS V14.01,2013-04-13 11:09:00,
2013-04-13 07:15:00,38.3,38.3,29.82,ENE,72,6.8,8.4,100,0.00,,,0.00,VWS V14.01,2013-04-13 11:15:00,
2013-04-13 07:21:00,38.4,38.4,29.82,NE,46,6.8,9.3,100,0.00,,,0.00,VWS V14.01,2013-04-13 11:21:00,
2013-04-13 07:27:00,38.1,38.1,29.82,NE,51,7.3,11.9,100,0.00,,,0.00,VWS V14.01,2013-04-13 11:27:00,
2013-04-13 07:33:00,38.3,38.3,29.82,East,97,7.6,8.0,100,0.00,,,0.00,VWS V14.01,2013-04-13 11:33:00,
2013-04-13 07:39:00,38.1,38.1,29.82,NE,56,7.3,13.2,100,0.00,,,0.00,VWS V14.01,2013-04-13 11:39:00,
2013-04-13 07:45:00,38.1,38.1,29.82,NNE,25,6.5,11.1,100,0.00,,,0.00,VWS V14.01,2013-04-13 11:45:00,
2013-04-13 07:51:00,38.3,38.3,29.82,ENE,62,7.4,9.5,100,0.00,,,0.00,VWS V14.01,2013-04-13 11:51:00,
2013-04-13 07:57:00,38.2,38.2,29.82,East,84,6.4,10.5,100,0.00,,,0.00,VWS V14.01,2013-04-13 11:57:00,
2013-04-13 08:07:00,38.4,38.4,29.82,ENE,58,5.4,14.7,100,0.00,,OVC012,0.00,VWS V14.01,2013-04-13 12:07:00,
2013-04-13 08:13:00,38.4,38.4,29.82,NNE,32,8.6,12.2,100,0.00,,OVC012,0.00,VWS V14.01,2013-04-13 12:13:00,
2013-04-13 08:19:00,38.5,38.5,29.82,ENE,63,2.5,9.0,100,0.00,,OVC012,0.00,VWS V14.01,2013-04-13 12:19:00,
2013-04-13 08:25:00,38.2,38.2,29.82,NNE,32,8.0,11.9,100,0.00,,OVC012,0.00,VWS V14.01,2013-04-13 12:25:00,
2013-04-13 08:31:00,38.3,38.3,29.82,NNE,24,7.0,12.3,100,0.00,,OVC014,0.00,VWS V14.01,2013-04-13 12:31:00,
2013-04-13 08:37:00,38.5,38.5,29.82,NE,39,7.4,11.0,100,0.00,,OVC014,0.00,VWS V14.01,2013-04-13 12:37:00,
2013-04-13 08:43:00,38.5,38.5,29.83,NE,56,8.6,11.9,100,0.00,,OVC014,0.00,VWS V14.01,2013-04-13 12:43:00,
2013-04-13 08:49:00,38.6,38.6,29.83,NE,55,7.7,18.5,100,0.00,,OVC014,0.00,VWS V14.01,2013-04-13 12:49:00,
2013-04-13 08:55:00,38.8,38.8,29.83,NNE,20,6.1,14.3,100,0.00,,OVC014,0.00,VWS V14.01,2013-04-13 12:55:00,
2013-04-13 09:01:00,38.9,38.9,29.84,NNE,30,8.9,10.0,100,0.00,,OVC012,0.00,VWS V14.01,2013-04-13 13:01:00,
2013-04-13 09:07:00,38.6,38.6,29.84,NNE,30,6.2,14.2,100,0.00,,OVC012,0.00,VWS V14.01,2013-04-13 13:07:00,
2013-04-13 09:13:00,39.1,39.1,29.84,NE,35,8.7,8.7,100,0.00,,OVC012,0.00,VWS V14.01,2013-04-13 13:13:00,
2013-04-13 09:19:00,39.4,39.4,29.85,NNE,15,4.1,8.4,100,0.00,,OVC012,0.00,VWS V14.01,2013-04-13 13:19:00,
2013-04-13 09:25:00,39.9,39.9,29.85,SE,134,3.5,7.7,100,0.00,,OVC012,0.00,VWS V14.01,2013-04-13 13:25:00,
2013-04-13 09:31:00,39.7,39.7,29.85,NE,41,3.5,8.5,100,0.00,,OVC012,0.00,VWS V14.01,2013-04-13 13:31:00,
2013-04-13 09:37:00,39.8,39.8,29.85,NNE,21,7.2,11.6,100,0.00,,OVC012,0.00,VWS V14.01,2013-04-13 13:37:00,
2013-04-13 09:45:00,39.7,39.7,29.85,ESE,121,4.7,7.3,100,0.00,,OVC012,0.00,VWS V14.01,2013-04-13 13:45:00,
2013-04-13 09:51:00,39.1,39.1,29.85,North,4,7.8,9.0,100,0.00,,OVC012,0.00,VWS V14.01,2013-04-13 13:51:00,
2013-04-13 09:57:00,39.6,39.6,29.85,NNE,27,7.9,9.8,100,0.00,,OVC012,0.00,VWS V14.01,2013-04-13 13:57:00,
2013-04-13 10:03:00,39.2,39.2,29.86,NNE,13,7.0,9.8,100,0.00,,OVC012,0.00,VWS V14.01,2013-04-13 14:03:00,
2013-04-13 10:09:00,39.9,39.9,29.86,NNW,332,5.5,7.2,100,0.00,,OVC012,0.00,VWS V14.01,2013-04-13 14:09:00,
2013-04-13 10:15:00,39.5,39.5,29.86,North,353,5.9,12.6,100,0.00,,OVC012,0.00,VWS V14.01,2013-04-13 14:15:00,
2013-04-13 10:23:00,39.4,39.4,29.86,ENE,70,7.5,9.4,100,0.00,,OVC012,0.00,VWS V14.01,2013-04-13 14:23:00,
2013-04-13 10:29:00,39.8,39.8,29.86,ENE,58,5.9,7.8,100,0.00,,OVC012,0.00,VWS V14.01,2013-04-13 14:29:00,
2013-04-13 10:35:00,39.8,39.8,29.86,NE,46,6.7,10.6,100,0.00,,OVC012,0.00,VWS V14.01,2013-04-13 14:35:00,
2013-04-13 10:41:00,40.1,40.1,29.86,SE,124,7.2,9.3,100,0.00,,OVC012,0.00,VWS V14.01,2013-04-13 14:41:00,
2013-04-13 10:47:00,39.9,39.9,29.86,North,7,7.7,13.4,100,0.00,,OVC012,0.00,VWS V14.01,2013-04-13 14:47:00,
2013-04-13 10:55:00,40.7,40.7,29.87,NNE,28,5.0,7.2,100,0.00,,OVC012,0.00,VWS V14.01,2013-04-13 14:55:00,
2013-04-13 11:01:00,40.5,40.5,29.87,NE,46,4.3,8.2,100,0.00,,OVC014,0.00,VWS V14.01,2013-04-13 15:01:00,
2013-04-13 11:07:00,41.0,41.0,29.87,North,6,10.6,12.2,100,0.00,,OVC014,0.00,VWS V14.01,2013-04-13 15:07:00,
2013-04-13 11:13:00,41.2,41.2,29.87,North,10,5.3,7.1,100,0.00,,OVC014,0.00,VWS V14.01,2013-04-13 15:13:00,
2013-04-13 11:19:00,41.1,41.1,29.87,NE,48,5.5,9.1,100,0.00,,OVC014,0.00,VWS V14.01,2013-04-13 15:19:00,
2013-04-13 11:25:00,41.6,41.6,29.86,East,80,4.9,10.3,100,0.00,,OVC014,0.00,VWS V14.01,2013-04-13 15:25:00,
2013-04-13 11:31:00,41.9,41.9,29.86,NE,49,2.5,6.2,100,0.00,,OVC014,0.00,VWS V14.01,2013-04-13 15:31:00,
2013-04-13 11:37:00,43.0,42.7,29.86,NNE,30,5.7,8.0,99,0.00,,OVC016,0.00,VWS V14.01,2013-04-13 15:37:00,
2013-04-13 11:45:00,43.5,43.2,29.86,ENE,62,2.5,6.9,99,0.00,,OVC016,0.00,VWS V14.01,2013-04-13 15:45:00,
2013-04-13 11:51:00,42.9,42.4,29.86,North,10,6.4,11.4,98,0.00,,OVC016,0.00,VWS V14.01,2013-04-13 15:51:00,
2013-04-13 11:57:00,44.0,43.4,29.87,NE,48,6.8,8.4,98,0.00,,OVC016,0.00,VWS V14.01,2013-04-13 15:57:00,
2013-04-13 12:03:00,43.8,43.0,29.86,NNE,15,7.2,7.2,97,0.00,,OVC018,0.00,VWS V14.01,2013-04-13 16:03:00,
2013-04-13 12:09:00,43.5,43.0,29.86,NE,37,2.5,6.8,98,0.00,,OVC018,0.00,VWS V14.01,2013-04-13 16:09:00,
2013-04-13 12:15:00,44.0,43.3,29.86,NE,42,4.7,7.6,97,0.00,,OVC018,0.00,VWS V14.01,2013-04-13 16:15:00,
2013-04-13 12:23:00,45.2,44.3,29.86,NE,42,2.5,2.7,96,0.00,,OVC018,0.00,VWS V14.01,2013-04-13 16:23:00,
2013-04-13 12:29:00,45.7,44.6,29.86,ENE,58,5.7,7.2,96,0.00,,OVC018,0.00,VWS V14.01,2013-04-13 16:29:00,
2013-04-13 12:35:00,45.1,44.0,29.86,NNE,25,4.2,7.5,96,0.00,,OVC018,0.00,VWS V14.01,2013-04-13 16:35:00,
2013-04-13 12:41:00,46.7,45.6,29.86,ENE,70,4.9,6.7,96,0.00,,OVC018,0.00,VWS V14.01,2013-04-13 16:41:00,
2013-04-13 12:47:00,44.9,43.6,29.86,ENE,58,4.3,6.1,95,0.00,,OVC018,0.00,VWS V14.01,2013-04-13 16:47:00,
2013-04-13 12:53:00,47.0,45.4,29.85,NE,39,5.4,7.7,94,0.00,,OVC018,0.00,VWS V14.01,2013-04-13 16:53:00,
2013-04-13 12:59:00,46.6,45.3,29.86,NNE,15,5.5,6.5,95,0.00,,OVC018,0.00,VWS V14.01,2013-04-13 16:59:00,
2013-04-13 13:05:00,46.6,45.0,29.86,NE,42,2.5,7.8,94,0.00,,BKN022,0.00,VWS V14.01,2013-04-13 17:05:00,
2013-04-13 13:11:00,47.2,45.5,29.86,NE,44,4.2,6.0,94,0.00,,BKN022,0.00,VWS V14.01,2013-04-13 17:11:00,
2013-04-13 13:17:00,48.3,46.4,29.86,ESE,104,5.4,7.7,93,0.00,,BKN022,0.00,VWS V14.01,2013-04-13 17:17:00,
2013-04-13 13:23:00,49.5,46.4,29.86,East,90,4.4,5.4,89,0.00,,BKN022,0.00,VWS V14.01,2013-04-13 17:23:00,
2013-04-13 13:29:00,50.9,45.4,29.86,SSE,163,6.5,9.3,81,0.00,,BKN022,0.00,VWS V14.01,2013-04-13 17:29:00,
2013-04-13 13:35:00,52.0,45.4,29.85,East,82,6.8,9.1,78,0.00,,OVC050,0.00,VWS V14.01,2013-04-13 17:35:00,
2013-04-13 13:45:00,52.3,43.5,29.85,ESE,117,6.5,9.2,72,0.00,,OVC050,0.00,VWS V14.01,2013-04-13 17:45:00,
2013-04-13 13:51:00,55.2,40.7,29.85,East,87,4.6,8.0,58,0.00,,OVC050,0.00,VWS V14.01,2013-04-13 17:51:00,
2013-04-13 13:57:00,56.5,41.2,29.85,SE,141,3.1,8.6,56,0.00,,OVC050,0.00,VWS V14.01,2013-04-13 17:57:00,
2013-04-13 14:03:00,55.7,40.6,29.84,SE,128,7.8,10.0,57,0.00,,BKN050,0.00,VWS V14.01,2013-04-13 18:03:00,
2013-04-13 14:09:00,57.4,40.1,29.85,SE,127,5.5,6.6,52,0.00,,BKN050,0.00,VWS V14.01,2013-04-13 18:09:00,
2013-04-13 14:15:00,53.0,42.1,29.84,NNE,32,6.0,6.7,66,0.00,,BKN050,0.00,VWS V14.01,2013-04-13 18:15:00,
2013-04-13 14:21:00,57.0,39.4,29.85,East,89,4.2,7.9,52,0.00,,BKN050,0.00,VWS V14.01,2013-04-13 18:21:00,
2013-04-13 14:27:00,57.3,38.6,29.84,SE,136,2.5,6.0,50,0.00,,BKN050,0.00,VWS V14.01,2013-04-13 18:27:00,
2013-04-13 14:33:00,51.7,41.0,29.84,SSE,150,8.2,8.2,67,0.00,,BKN050,0.00,VWS V14.01,2013-04-13 18:33:00,
2013-04-13 14:35:00,52.8,40.6,29.84,ESE,114,8.2,9.5,63,0.00,,BKN050,0.00,VWS V14.01,2013-04-13 18:35:00,
2013-04-13 14:37:00,51.2,39.5,29.84,South,176,6.7,10.7,64,0.00,,BKN050,0.00,VWS V14.01,2013-04-13 18:37:00,
2013-04-13 14:43:00,50.3,43.6,29.84,ESE,114,6.8,9.3,78,0.00,,BKN050,0.00,VWS V14.01,2013-04-13 18:43:00,
2013-04-13 14:49:00,49.8,42.1,29.84,ENE,62,2.5,6.8,75,0.00,,BKN050,0.00,VWS V14.01,2013-04-13 18:49:00,
2013-04-13 14:55:00,50.8,41.4,29.84,East,89,5.4,7.5,70,0.00,,BKN050,0.00,VWS V14.01,2013-04-13 18:55:00,
2013-04-13 15:01:00,49.8,43.3,29.84,East,97,5.9,8.2,78,0.00,,BKN042,0.00,VWS V14.01,2013-04-13 19:01:00,
2013-04-13 15:07:00,49.6,42.6,29.84,SE,142,4.9,8.6,77,0.00,,BKN042,0.00,VWS V14.01,2013-04-13 19:07:00,
2013-04-13 15:13:00,48.4,42.9,29.84,SSE,159,4.2,9.8,81,0.00,,BKN042,0.00,VWS V14.01,2013-04-13 19:13:00,
2013-04-13 15:17:00,48.6,43.8,29.84,SSW,210,6.5,9.0,83,0.00,,BKN042,0.00,VWS V14.01,2013-04-13 19:17:00,
2013-04-13 15:23:00,48.2,43.2,29.84,South,173,4.4,6.5,83,0.00,,BKN042,0.00,VWS V14.01,2013-04-13 19:23:00,
2013-04-13 15:29:00,48.4,43.1,29.84,South,173,5.8,6.8,82,0.00,,BKN042,0.00,VWS V14.01,2013-04-13 19:29:00,
2013-04-13 15:35:00,48.8,43.1,29.84,South,188,4.2,7.5,80,0.00,,BKN042,0.00,VWS V14.01,2013-04-13 19:35:00,
2013-04-13 15:41:00,47.4,43.8,29.84,East,97,2.5,9.3,87,0.00,,BKN042,0.00,VWS V14.01,2013-04-13 19:41:00,
2013-04-13 15:47:00,46.8,43.8,29.84,South,183,9.0,10.6,89,0.00,,BKN042,0.00,VWS V14.01,2013-04-13 19:47:00,
2013-04-13 15:53:00,46.3,43.7,29.84,South,169,8.3,8.6,90,0.00,,BKN042,0.00,VWS V14.01,2013-04-13 19:53:00,
2013-04-13 15:59:00,45.9,43.1,29.84,SSE,156,4.4,8.0,90,0.00,,BKN042,0.00,VWS V14.01,2013-04-13 19:59:00,
2013-04-13 16:05:00,45.9,43.7,29.84,SSE,163,7.0,8.1,92,0.00,,OVC046,0.00,VWS V14.01,2013-04-13 20:05:00,
2013-04-13 16:11:00,46.6,43.6,29.84,East,83,4.7,9.5,89,0.00,,OVC046,0.00,VWS V14.01,2013-04-13 20:11:00,
2013-04-13 16:17:00,46.3,43.1,29.85,ESE,108,3.7,8.2,89,0.00,,OVC046,0.00,VWS V14.01,2013-04-13 20:17:00,
2013-04-13 16:23:00,45.9,43.7,29.85,SSE,165,2.5,7.7,92,0.00,,OVC046,0.00,VWS V14.01,2013-04-13 20:23:00,
2013-04-13 16:29:00,45.2,44.0,29.86,SSW,204,6.4,8.7,96,0.00,,OVC046,0.00,VWS V14.01,2013-04-13 20:29:00,
2013-04-13 16:35:00,44.3,43.3,29.86,SW,221,5.4,6.2,96,0.00,,OVC046,0.00,VWS V14.01,2013-04-13 20:35:00,
2013-04-13 16:41:00,44.2,43.5,29.86,SSE,155,5.9,8.6,97,0.00,,OVC046,0.00,VWS V14.01,2013-04-13 20:41:00,
2013-04-13 16:47:00,44.6,43.9,29.86,South,186,5.9,7.9,97,0.00,,OVC046,0.00,VWS V14.01,2013-04-13 20:47:00,
2013-04-13 16:53:00,44.6,43.9,29.86,SSE,167,7.8,8.7,97,0.00,,OVC046,0.00,VWS V14.01,2013-04-13 20:53:00,
2013-04-13 16:59:00,44.4,43.5,29.87,SW,235,5.7,5.7,97,0.00,,OVC046,0.00,VWS V14.01,2013-04-13 20:59:00,
2013-04-13 17:05:00,44.7,44.1,29.86,South,174,3.7,3.9,98,0.00,,OVC050,0.00,VWS V14.01,2013-04-13 21:05:00,
2013-04-13 17:11:00,45.2,44.3,29.87,South,184,4.5,4.6,97,0.00,,OVC050,0.00,VWS V14.01,2013-04-13 21:11:00,
2013-04-13 17:17:00,45.2,44.4,29.87,SSE,162,2.5,3.6,97,0.00,,OVC050,0.00,VWS V14.01,2013-04-13 21:17:00,
2013-04-13 17:23:00,44.9,44.1,29.87,SSW,193,4.4,8.1,97,0.00,,OVC050,0.00,VWS V14.01,2013-04-13 21:23:00,
2013-04-13 17:29:00,44.7,44.1,29.88,SE,135,7.4,8.6,98,0.00,,OVC050,0.00,VWS V14.01,2013-04-13 21:29:00,
2013-04-13 17:35:00,44.8,44.2,29.88,SE,146,2.5,2.5,98,0.00,,OVC050,0.00,VWS V14.01,2013-04-13 21:35:00,
2013-04-13 17:41:00,44.8,44.0,29.89,SSE,149,3.6,5.8,97,0.00,,OVC050,0.00,VWS V14.01,2013-04-13 21:41:00,
2013-04-13 17:47:00,45.1,44.2,29.88,ESE,108,3.5,7.0,97,0.00,,OVC050,0.00,VWS V14.01,2013-04-13 21:47:00,
2013-04-13 17:53:00,45.0,44.3,29.88,South,174,5.2,6.1,97,0.00,,OVC050,0.00,VWS V14.01,2013-04-13 21:53:00,
2013-04-13 17:59:00,44.8,44.0,29.88,SSW,195,2.5,4.6,97,0.00,,OVC050,0.00,VWS V14.01,2013-04-13 21:59:00,
2013-04-13 18:05:00,45.4,44.2,29.88,SSW,195,2.5,2.5,96,0.00,,BKN150,0.00,VWS V14.01,2013-04-13 22:05:00,
2013-04-13 18:11:00,49.7,48.2,29.88,South,170,6.8,7.3,95,0.00,,BKN150,0.00,VWS V14.01,2013-04-13 22:11:00,
2013-04-13 18:17:00,47.0,44.1,29.88,South,190,4.2,7.5,90,0.00,,BKN150,0.00,VWS V14.01,2013-04-13 22:17:00,
2013-04-13 18:23:00,45.2,44.5,29.88,East,79,2.9,7.2,97,0.00,,BKN150,0.00,VWS V14.01,2013-04-13 22:23:00,
2013-04-13 18:29:00,44.2,43.8,29.89,South,190,4.7,6.2,98,0.00,,BKN150,0.00,VWS V14.01,2013-04-13 22:29:00,
2013-04-13 18:35:00,43.3,43.2,29.89,North,352,2.5,3.2,100,0.00,,BKN150,0.00,VWS V14.01,2013-04-13 22:35:00,
2013-04-13 18:41:00,42.6,42.6,29.89,ESE,110,2.5,6.0,100,0.00,,BKN150,0.00,VWS V14.01,2013-04-13 22:41:00,
2013-04-13 18:47:00,42.2,42.2,29.89,East,101,2.5,5.2,100,0.00,,BKN150,0.00,VWS V14.01,2013-04-13 22:47:00,
2013-04-13 18:53:00,41.9,41.9,29.89,South,188,2.5,4.4,100,0.00,,BKN150,0.00,VWS V14.01,2013-04-13 22:53:00,
2013-04-13 18:59:00,41.8,41.8,29.89,SW,217,3.2,5.9,100,0.00,,BKN150,0.00,VWS V14.01,2013-04-13 22:59:00,
2013-04-13 19:05:00,41.7,41.7,29.90,South,177,2.5,2.5,100,0.00,,BKN060,0.00,VWS V14.01,2013-04-13 23:05:00,
2013-04-13 19:11:00,41.8,41.8,29.90,WNW,283,2.5,4.0,100,0.00,,BKN060,0.00,VWS V14.01,2013-04-13 23:11:00,
2013-04-13 19:17:00,41.7,41.7,29.90,SW,235,4.4,4.4,100,0.00,,BKN060,0.00,VWS V14.01,2013-04-13 23:17:00,
2013-04-13 19:23:00,41.9,41.9,29.90,SE,124,3.6,4.9,100,0.00,,BKN060,0.00,VWS V14.01,2013-04-13 23:23:00,
2013-04-13 19:29:00,41.8,41.8,29.91,SW,228,4.6,4.9,100,0.00,,BKN060,0.00,VWS V14.01,2013-04-13 23:29:00,
2013-04-13 19:35:00,42.0,42.0,29.90,WSW,243,3.5,6.5,100,0.00,,BKN060,0.00,VWS V14.01,2013-04-13 23:35:00,
2013-04-13 19:41:00,42.1,42.1,29.91,SW,232,3.4,6.9,100,0.00,,BKN060,0.00,VWS V14.01,2013-04-13 23:41:00,
2013-04-13 19:47:00,42.2,42.2,29.91,SE,141,2.5,7.8,100,0.00,,BKN060,0.00,VWS V14.01,2013-04-13 23:47:00,
2013-04-13 19:53:00,42.0,42.0,29.90,SSE,150,3.1,4.2,100,0.00,,BKN060,0.00,VWS V14.01,2013-04-13 23:53:00,
2013-04-13 19:59:00,42.1,42.1,29.90,South,181,5.5,8.8,100,0.00,,BKN060,0.00,VWS V14.01,2013-04-13 23:59:00,
2013-04-13 20:05:00,42.1,42.1,29.90,WSW,246,2.5,2.5,100,0.00,,BKN060,0.00,VWS V14.01,2013-04-14 00:05:00,
2013-04-13 20:11:00,42.2,42.2,29.90,South,187,3.3,5.8,100,0.00,,BKN060,0.00,VWS V14.01,2013-04-14 00:11:00,
2013-04-13 20:17:00,42.1,42.1,29.90,WSW,249,4.1,9.1,100,0.00,,BKN060,0.00,VWS V14.01,2013-04-14 00:17:00,
2013-04-13 20:23:00,42.0,42.0,29.90,South,179,5.5,6.1,100,0.00,,BKN060,0.00,VWS V14.01,2013-04-14 00:23:00,
2013-04-13 20:29:00,41.4,41.4,29.90,WSW,245,2.5,5.4,100,0.00,,BKN060,0.00,VWS V14.01,2013-04-14 00:29:00,
2013-04-13 20:35:00,40.9,40.9,29.91,West,269,3.1,6.7,100,0.00,,BKN060,0.00,VWS V14.01,2013-04-14 00:35:00,
2013-04-13 20:41:00,40.8,40.8,29.91,SE,146,2.5,4.2,100,0.00,,BKN060,0.00,VWS V14.01,2013-04-14 00:41:00,
2013-04-13 20:47:00,40.9,40.9,29.92,SE,146,2.5,2.5,100,0.00,,BKN060,0.00,VWS V14.01,2013-04-14 00:47:00,
2013-04-13 20:53:00,40.8,40.8,29.92,SE,146,2.5,2.5,100,0.00,,BKN060,0.00,VWS V14.01,2013-04-14 00:53:00,
2013-04-13 20:59:00,40.2,40.2,29.92,SE,146,2.5,2.5,100,0.00,,BKN060,0.00,VWS V14.01,2013-04-14 00:59:00,
2013-04-13 21:05:00,40.5,40.5,29.92,SE,146,2.5,2.5,100,0.00,,BKN070,0.00,VWS V14.01,2013-04-14 01:05:00,
2013-04-13 21:11:00,40.7,40.7,29.92,SE,146,2.5,2.5,100,0.00,,BKN070,0.00,VWS V14.01,2013-04-14 01:11:00,
2013-04-13 21:17:00,40.6,40.6,29.93,SE,146,2.5,2.5,100,0.00,,BKN070,0.00,VWS V14.01,2013-04-14 01:17:00,
2013-04-13 21:23:00,40.8,40.8,29.93,SE,146,2.5,2.5,100,0.00,,BKN070,0.00,VWS V14.01,2013-04-14 01:23:00,
2013-04-13 21:29:00,40.9,40.9,29.93,SE,146,2.5,2.5,100,0.00,,BKN070,0.00,VWS V14.01,2013-04-14 01:29:00,
2013-04-13 21:35:00,40.9,40.9,29.93,SE,146,2.5,2.5,100,0.00,,BKN070,0.00,VWS V14.01,2013-04-14 01:35:00,
2013-04-13 21:41:00,41.0,41.0,29.93,SE,146,2.5,2.5,100,0.00,,BKN070,0.00,VWS V14.01,2013-04-14 01:41:00,
2013-04-13 21:47:00,41.2,41.2,29.93,SE,146,2.5,2.5,100,0.00,,BKN070,0.00,VWS V14.01,2013-04-14 01:47:00,
2013-04-13 21:53:00,41.3,41.3,29.93,NW,307,3.6,4.2,100,0.00,,BKN070,0.00,VWS V14.01,2013-04-14 01:53:00,
2013-04-13 21:59:00,41.2,41.2,29.93,WSW,243,2.5,2.5,100,0.00,,BKN070,0.00,VWS V14.01,2013-04-14 01:59:00,
2013-04-13 22:05:00,41.3,41.3,29.93,SW,222,2.5,2.5,100,0.00,,OVC075,0.00,VWS V14.01,2013-04-14 02:05:00,
2013-04-13 22:11:00,41.3,41.3,29.93,SW,222,2.5,2.5,100,0.00,,OVC075,0.00,VWS V14.01,2013-04-14 02:11:00,
2013-04-13 22:17:00,41.4,41.4,29.94,SW,222,2.5,2.5,100,0.00,,OVC075,0.00,VWS V14.01,2013-04-14 02:17:00,
2013-04-13 22:23:00,41.3,41.3,29.94,SW,222,2.5,2.5,100,0.00,,OVC075,0.00,VWS V14.01,2013-04-14 02:23:00,
2013-04-13 22:29:00,41.3,41.3,29.94,WSW,239,2.5,3.2,100,0.00,,OVC075,0.00,VWS V14.01,2013-04-14 02:29:00,
2013-04-13 22:35:00,41.3,41.3,29.94,WSW,239,2.5,2.5,100,0.00,,OVC075,0.00,VWS V14.01,2013-04-14 02:35:00,
2013-04-13 22:41:00,41.3,41.3,29.94,WSW,239,2.5,2.5,100,0.00,,OVC075,0.00,VWS V14.01,2013-04-14 02:41:00,
2013-04-13 22:47:00,41.3,41.3,29.94,SSE,158,2.5,2.5,100,0.00,,OVC075,0.00,VWS V14.01,2013-04-14 02:47:00,
2013-04-13 22:53:00,41.3,41.3,29.94,SSW,205,2.5,2.5,100,0.00,,OVC075,0.00,VWS V14.01,2013-04-14 02:53:00,
2013-04-13 22:59:00,41.3,41.3,29.95,SSW,205,2.5,2.5,100,0.00,,OVC075,0.00,VWS V14.01,2013-04-14 02:59:00,
2013-04-13 23:05:00,41.1,41.1,29.94,SSW,205,2.5,2.5,100,0.00,,OVC075,0.00,VWS V14.01,2013-04-14 03:05:00,
2013-04-13 23:11:00,41.3,41.3,29.95,SW,222,2.5,2.5,100,0.00,,OVC075,0.00,VWS V14.01,2013-04-14 03:11:00,
2013-04-13 23:17:00,41.3,41.3,29.95,SW,222,2.5,2.5,100,0.00,,OVC075,0.00,VWS V14.01,2013-04-14 03:17:00,
2013-04-13 23:23:00,41.4,41.4,29.95,SW,222,2.5,2.5,100,0.00,,OVC075,0.00,VWS V14.01,2013-04-14 03:23:00,
2013-04-13 23:29:00,41.3,41.3,29.95,SW,222,2.5,2.5,100,0.00,,OVC075,0.00,VWS V14.01,2013-04-14 03:29:00,
2013-04-13 23:35:00,41.4,41.4,29.95,SW,222,2.5,2.5,100,0.00,,OVC075,0.00,VWS V14.01,2013-04-14 03:35:00,
2013-04-13 23:41:00,41.3,41.3,29.95,SW,222,2.5,2.5,100,0.00,,OVC075,0.00,VWS V14.01,2013-04-14 03:41:00,
2013-04-13 23:47:00,41.2,41.2,29.94,SSW,208,2.5,2.5,100,0.00,,OVC075,0.00,VWS V14.01,2013-04-14 03:47:00,
2013-04-13 23:53:00,41.0,41.0,29.95,SSW,208,2.5,2.5,100,0.00,,OVC075,0.00,VWS V14.01,2013-04-14 03:53:00,